createdAt,value
2022-10-24T00:02:48.920Z,82.27
2022-10-24T00:05:53.210Z,82.59
2022-10-24T00:08:58.546Z,82.00
2022-10-24T00:12:01.110Z,80.41
2022-10-24T00:15:05.338Z,79.75
2022-10-24T00:18:08.017Z,80.04
2022-10-24T00:21:12.211Z,81.71
2022-10-24T00:24:15.086Z,81.99
2022-10-24T00:27:17.926Z,80.40
2022-10-24T00:30:20.806Z,81.53
2022-10-24T00:33:23.670Z,81.89
2022-10-24T00:36:28.969Z,82.05
2022-10-24T00:39:31.740Z,82.68
2022-10-24T00:42:34.393Z,82.43
2022-10-24T00:45:43.241Z,82.98
2022-10-24T00:48:49.421Z,83.15
2022-10-24T00:51:57.459Z,83.31
2022-10-24T00:55:02.451Z,83.41
2022-10-24T00:58:07.593Z,83.51
2022-10-24T01:01:10.580Z,82.84
2022-10-24T01:04:14.472Z,83.02
2022-10-24T01:07:30.274Z,82.81
2022-10-24T01:10:43.597Z,82.96
2022-10-24T01:13:58.697Z,83.30
2022-10-24T01:17:08.566Z,82.74
2022-10-24T01:20:26.491Z,82.92
2022-10-24T01:24:20.606Z,81.76
2022-10-24T01:27:42.088Z,82.16
2022-10-24T01:30:51.373Z,82.47
2022-10-24T01:34:00.040Z,81.24
2022-10-24T01:37:05.625Z,82.61
2022-10-24T01:40:13.854Z,83.51
2022-10-24T01:43:18.620Z,83.63
2022-10-24T01:46:27.941Z,82.81
2022-10-24T01:49:35.073Z,82.34
2022-10-24T01:52:41.610Z,82.22
2022-10-24T01:55:46.670Z,83.60
2022-10-24T01:58:49.319Z,82.61
2022-10-24T02:01:55.712Z,83.59
2022-10-24T02:05:06.025Z,83.66
2022-10-24T02:08:12.083Z,84.01
2022-10-24T02:11:15.165Z,84.53
2022-10-24T02:14:21.536Z,84.72
2022-10-24T02:17:25.770Z,84.79
2022-10-24T02:20:32.033Z,84.53
2022-10-24T02:23:39.662Z,84.32
2022-10-24T02:26:49.813Z,83.92
2022-10-24T02:29:57.523Z,83.22
2022-10-24T02:33:01.874Z,83.47
2022-10-24T02:36:07.066Z,83.72
2022-10-24T02:39:11.618Z,83.99
2022-10-24T02:42:15.544Z,84.72
2022-10-24T02:45:19.420Z,84.26
2022-10-24T02:48:29.095Z,83.77
2022-10-24T02:51:35.004Z,83.99
2022-10-24T02:54:37.659Z,84.46
2022-10-24T02:57:40.429Z,84.99
2022-10-24T03:00:43.021Z,85.03
2022-10-24T03:03:47.556Z,84.78
2022-10-24T03:06:50.284Z,84.59
2022-10-24T03:09:52.855Z,84.00
2022-10-24T03:12:55.572Z,83.65
2022-10-24T03:15:58.150Z,83.64
2022-10-24T03:19:02.269Z,83.65
2022-10-24T03:22:05.229Z,83.91
2022-10-24T03:25:08.357Z,83.81
2022-10-24T03:28:11.090Z,83.87
2022-10-24T03:31:13.673Z,83.32
2022-10-24T03:34:17.769Z,83.09
2022-10-24T03:37:20.582Z,82.89
2022-10-24T03:40:23.139Z,82.39
2022-10-24T03:43:25.951Z,83.71
2022-10-24T03:46:28.524Z,82.95
2022-10-24T03:49:33.444Z,82.61
2022-10-24T03:52:36.217Z,82.83
2022-10-24T03:55:38.823Z,82.90
2022-10-24T03:58:41.508Z,82.93
2022-10-24T04:01:44.231Z,82.63
2022-10-24T04:04:48.468Z,82.67
2022-10-24T04:07:51.054Z,82.25
2022-10-24T04:10:53.693Z,82.20
2022-10-24T04:13:56.480Z,82.72
2022-10-24T04:16:59.177Z,82.18
2022-10-24T04:20:03.156Z,82.07
2022-10-24T04:23:05.854Z,82.49
2022-10-24T04:26:08.504Z,81.99
2022-10-24T04:29:11.121Z,82.14
2022-10-24T04:32:13.684Z,82.25
2022-10-24T04:35:17.923Z,82.24
2022-10-24T04:38:20.728Z,82.06
2022-10-24T04:41:23.370Z,82.44
2022-10-24T04:44:26.076Z,82.53
2022-10-24T04:47:29.515Z,82.70
2022-10-24T04:50:33.831Z,81.81
2022-10-24T04:53:36.669Z,82.22
2022-10-24T04:56:39.233Z,82.53
2022-10-24T04:59:41.811Z,83.45
2022-10-24T05:02:44.465Z,82.66
2022-10-24T05:05:49.099Z,82.99
2022-10-24T05:08:51.830Z,82.84
2022-10-24T05:11:56.431Z,82.75
2022-10-24T05:14:59.197Z,82.12
2022-10-24T05:18:02.154Z,83.36
2022-10-24T05:21:06.684Z,82.88
2022-10-24T05:24:09.660Z,84.14
2022-10-24T05:27:12.229Z,83.13
2022-10-24T05:30:15.534Z,84.02
2022-10-24T05:33:18.143Z,83.69
2022-10-24T05:36:22.129Z,84.20
2022-10-24T05:39:24.856Z,85.13
2022-10-24T05:42:27.500Z,84.71
2022-10-24T05:45:30.167Z,84.59
2022-10-24T05:48:32.748Z,84.43
2022-10-24T05:51:36.721Z,85.38
2022-10-24T05:54:55.325Z,84.87
2022-10-24T05:58:02.138Z,84.54
2022-10-24T06:01:05.020Z,84.41
2022-10-24T06:04:10.017Z,84.22
2022-10-24T06:07:17.107Z,84.48
2022-10-24T06:10:19.931Z,84.61
2022-10-24T06:13:22.525Z,85.15
2022-10-24T06:16:27.674Z,85.00
2022-10-24T06:19:30.343Z,84.60
2022-10-24T06:22:34.385Z,84.58
2022-10-24T06:25:37.132Z,84.16
2022-10-24T06:28:39.963Z,84.38
2022-10-24T06:31:42.681Z,84.71
2022-10-24T06:34:45.546Z,84.62
2022-10-24T06:37:49.780Z,84.65
2022-10-24T06:40:52.572Z,84.38
2022-10-24T06:43:56.384Z,84.17
2022-10-24T06:46:59.056Z,84.22
2022-10-24T06:50:01.838Z,83.96
2022-10-24T06:53:05.718Z,84.42
2022-10-24T06:56:09.312Z,84.33
2022-10-24T06:59:13.154Z,83.40
2022-10-24T07:02:17.413Z,83.15
2022-10-24T07:05:20.341Z,83.48
2022-10-24T07:08:24.286Z,83.43
2022-10-24T07:11:28.220Z,83.89
2022-10-24T07:14:30.801Z,83.77
2022-10-24T07:17:39.923Z,83.70
2022-10-24T07:20:42.605Z,81.80
2022-10-24T07:23:47.193Z,81.94
2022-10-24T07:26:49.917Z,82.38
2022-10-24T07:29:52.634Z,82.67
2022-10-24T07:32:55.858Z,82.68
2022-10-24T07:35:59.057Z,82.01
2022-10-24T07:39:03.055Z,81.83
2022-10-24T07:42:05.813Z,81.11
2022-10-24T07:45:09.688Z,81.03
2022-10-24T07:48:12.781Z,82.37
2022-10-24T07:51:16.250Z,80.73
2022-10-24T07:54:20.141Z,81.36
2022-10-24T07:57:23.140Z,80.74
2022-10-24T08:00:25.931Z,80.72
2022-10-24T08:03:28.529Z,81.15
2022-10-24T08:06:32.894Z,80.33
2022-10-24T08:09:39.869Z,80.57
2022-10-24T08:12:42.856Z,79.32
2022-10-24T08:15:45.751Z,78.82
2022-10-24T08:18:49.209Z,78.09
2022-10-24T08:21:52.933Z,78.72
2022-10-24T08:24:56.844Z,78.30
2022-10-24T08:28:00.228Z,77.42
2022-10-24T08:31:06.805Z,77.59
2022-10-24T08:34:13.416Z,77.28
2022-10-24T08:37:16.118Z,76.42
2022-10-24T08:40:21.584Z,75.03
2022-10-24T08:43:25.314Z,76.39
2022-10-24T08:46:39.873Z,75.61
2022-10-24T08:49:50.307Z,75.33
2022-10-24T08:52:59.174Z,76.00
2022-10-24T08:56:03.256Z,75.03
2022-10-24T08:59:06.811Z,74.89
2022-10-24T09:02:19.649Z,74.65
2022-10-24T09:05:25.800Z,74.79
2022-10-24T09:08:34.871Z,73.68
2022-10-24T09:11:47.411Z,73.87
2022-10-24T09:14:55.624Z,74.29
2022-10-24T09:17:59.871Z,72.66
2022-10-24T09:21:03.552Z,72.05
2022-10-24T09:24:07.742Z,71.43
2022-10-24T09:27:17.470Z,70.46
2022-10-24T09:30:28.566Z,71.59
2022-10-24T09:33:39.494Z,72.05
2022-10-24T09:36:42.461Z,71.67
2022-10-24T09:39:45.027Z,71.69
2022-10-24T09:42:56.095Z,70.75
2022-10-24T09:46:03.692Z,71.12
2022-10-24T09:49:20.079Z,71.02
2022-10-24T09:52:25.396Z,69.33
2022-10-24T09:55:31.101Z,68.98
2022-10-24T09:58:35.753Z,69.86
2022-10-24T10:01:38.566Z,70.45
2022-10-24T10:04:41.875Z,68.76
2022-10-24T10:07:48.392Z,69.30
2022-10-24T10:11:04.536Z,69.49
2022-10-24T10:14:23.366Z,68.63
2022-10-24T10:17:28.415Z,68.67
2022-10-24T10:20:35.998Z,68.73
2022-10-24T10:23:41.164Z,68.29
2022-10-24T10:26:45.512Z,67.70
2022-10-24T10:29:49.573Z,67.25
2022-10-24T10:33:06.711Z,66.99
2022-10-24T10:36:17.477Z,67.62
2022-10-24T10:39:35.932Z,67.35
2022-10-24T10:42:46.959Z,67.51
2022-10-24T10:46:05.742Z,66.25
2022-10-24T10:49:17.251Z,66.58
2022-10-24T10:52:25.656Z,67.12
2022-10-24T10:55:36.026Z,67.04
2022-10-24T10:58:46.927Z,67.29
2022-10-24T11:01:59.488Z,66.91
2022-10-24T11:05:17.477Z,66.46
2022-10-24T11:08:45.879Z,66.57
2022-10-24T11:11:52.970Z,65.34
2022-10-24T11:15:01.455Z,65.41
2022-10-24T11:18:12.356Z,65.29
2022-10-24T11:21:17.820Z,65.13
2022-10-24T11:24:24.464Z,65.73
2022-10-24T11:27:33.952Z,65.52
2022-10-24T11:30:44.174Z,65.09
2022-10-24T11:33:56.494Z,64.69
2022-10-24T11:37:03.951Z,64.41
2022-10-24T11:40:13.414Z,65.38
2022-10-24T11:43:23.642Z,64.36
2022-10-24T11:46:33.914Z,63.62
2022-10-24T11:49:42.042Z,64.37
2022-10-24T11:52:49.896Z,64.05
2022-10-24T11:55:57.889Z,64.48
2022-10-24T11:59:02.943Z,63.86
2022-10-24T12:02:51.166Z,62.03
2022-10-24T12:06:21.552Z,64.10
2022-10-24T12:09:37.959Z,64.43
2022-10-24T12:13:03.411Z,64.23
2022-10-24T12:16:17.102Z,64.03
2022-10-24T12:19:22.882Z,64.00
2022-10-24T12:22:35.844Z,63.12
2022-10-24T12:25:40.321Z,62.55
2022-10-24T12:28:44.525Z,62.18
2022-10-24T12:31:47.416Z,62.86
2022-10-24T12:35:25.387Z,63.21
2022-10-24T12:39:07.783Z,63.09
2022-10-24T12:42:17.266Z,63.31
2022-10-24T12:45:31.002Z,62.67
2022-10-24T12:48:37.057Z,62.25
2022-10-24T12:51:41.142Z,61.58
2022-10-24T12:54:45.479Z,62.32
2022-10-24T12:57:49.503Z,62.44
2022-10-24T13:00:57.670Z,60.86
2022-10-24T13:04:26.199Z,61.48
2022-10-24T13:07:50.640Z,60.55
2022-10-24T13:11:11.547Z,60.30
2022-10-24T13:14:28.883Z,60.22
2022-10-24T13:17:40.840Z,59.62
2022-10-24T13:20:45.971Z,59.21
2022-10-24T13:23:49.829Z,58.81
2022-10-24T13:27:23.592Z,59.30
2022-10-24T13:30:28.634Z,60.66
2022-10-24T13:33:45.470Z,59.94
2022-10-24T13:36:51.555Z,59.44
2022-10-24T13:40:01.788Z,59.78
2022-10-24T13:43:07.970Z,59.03
2022-10-24T13:46:13.390Z,59.67
2022-10-24T13:49:23.506Z,59.87
2022-10-24T13:52:33.790Z,60.63
2022-10-24T13:55:40.173Z,59.99
2022-10-24T13:58:45.272Z,59.95
2022-10-24T14:01:49.441Z,59.42
2022-10-24T14:04:56.164Z,60.05
2022-10-24T14:08:02.112Z,60.31
2022-10-24T14:11:19.747Z,60.91
2022-10-24T14:14:30.039Z,61.08
2022-10-24T14:17:35.857Z,61.36
2022-10-24T14:20:39.038Z,61.08
2022-10-24T14:23:42.700Z,61.49
2022-10-24T14:26:46.674Z,60.78
2022-10-24T14:29:55.434Z,60.84
2022-10-24T14:33:07.779Z,61.71
2022-10-24T14:36:18.624Z,61.12
2022-10-24T14:39:24.665Z,62.26
2022-10-24T14:42:28.344Z,62.34
2022-10-24T14:45:32.207Z,61.35
2022-10-24T14:48:37.313Z,61.87
2022-10-24T14:51:41.903Z,61.74
2022-10-24T14:54:54.087Z,62.32
2022-10-24T14:57:57.266Z,61.82
2022-10-24T15:01:00.917Z,63.23
2022-10-24T15:04:06.779Z,62.20
2022-10-24T15:07:23.072Z,62.29
2022-10-24T15:10:30.205Z,63.39
2022-10-24T15:13:34.805Z,63.57
2022-10-24T15:16:39.800Z,63.74
2022-10-24T15:19:45.593Z,63.56
2022-10-24T15:22:50.449Z,64.49
2022-10-24T15:26:02.644Z,64.43
2022-10-24T15:29:08.791Z,64.60
2022-10-24T15:32:12.254Z,64.13
2022-10-24T15:35:17.875Z,64.78
2022-10-24T15:38:20.489Z,64.84
2022-10-24T15:41:23.755Z,65.19
2022-10-24T15:44:29.487Z,65.01
2022-10-24T15:47:32.030Z,65.39
2022-10-24T15:50:36.579Z,65.23
2022-10-24T15:53:39.121Z,65.60
2022-10-24T15:56:41.763Z,65.60
2022-10-24T15:59:44.306Z,65.64
2022-10-24T16:02:49.069Z,65.68
2022-10-24T16:05:55.465Z,65.94
2022-10-24T16:08:58.135Z,66.08
2022-10-24T16:12:00.729Z,66.74
2022-10-24T16:15:03.324Z,67.21
2022-10-24T16:18:06.663Z,67.46
2022-10-24T16:21:17.204Z,66.72
2022-10-24T16:24:22.185Z,67.16
2022-10-24T16:27:24.875Z,67.49
2022-10-24T16:30:29.536Z,67.66
2022-10-24T16:33:32.648Z,66.86
2022-10-24T16:36:36.605Z,67.09
2022-10-24T16:39:39.270Z,67.81
2022-10-24T16:42:42.087Z,67.77
2022-10-24T16:45:47.017Z,66.53
2022-10-24T16:48:50.693Z,66.67
2022-10-24T16:51:54.723Z,67.03
2022-10-24T16:54:57.297Z,66.42
2022-10-24T16:58:00.373Z,67.29
2022-10-24T17:01:04.537Z,67.06
2022-10-24T17:04:07.223Z,67.22
2022-10-24T17:07:11.416Z,66.92
2022-10-24T17:10:14.390Z,66.77
2022-10-24T17:13:16.990Z,66.46
2022-10-24T17:16:20.785Z,66.00
2022-10-24T17:19:23.473Z,66.01
2022-10-24T17:22:27.936Z,65.64
2022-10-24T17:25:30.729Z,65.85
2022-10-24T17:28:33.777Z,65.97
2022-10-24T17:31:36.590Z,65.65
2022-10-24T17:34:40.069Z,65.66
2022-10-24T17:37:53.398Z,65.88
2022-10-24T17:40:58.851Z,65.67
2022-10-24T17:44:02.282Z,64.56
2022-10-24T17:47:05.406Z,65.56
2022-10-24T17:50:09.103Z,65.88
2022-10-24T17:53:14.262Z,65.40
2022-10-24T17:56:19.484Z,65.49
2022-10-24T17:59:24.599Z,66.18
2022-10-24T18:02:28.604Z,66.53
2022-10-24T18:05:34.198Z,66.47
2022-10-24T18:08:38.309Z,67.20
2022-10-24T18:11:41.188Z,66.63
2022-10-24T18:14:43.902Z,67.16
2022-10-24T18:17:47.483Z,66.81
2022-10-24T18:20:50.471Z,65.72
2022-10-24T18:23:54.914Z,67.07
2022-10-24T18:26:57.892Z,67.66
2022-10-24T18:30:00.603Z,66.85
2022-10-24T18:33:03.200Z,67.67
2022-10-24T18:36:08.217Z,67.21
2022-10-24T18:39:13.308Z,68.10
2022-10-24T18:42:26.489Z,67.37
2022-10-24T18:45:30.051Z,67.38
2022-10-24T18:48:33.594Z,66.99
2022-10-24T18:51:42.260Z,66.44
2022-10-24T18:54:54.875Z,67.70
2022-10-24T18:57:58.660Z,68.17
2022-10-24T19:01:01.540Z,68.39
2022-10-24T19:04:13.672Z,67.55
2022-10-24T19:07:16.924Z,67.49
2022-10-24T19:10:24.751Z,68.40
2022-10-24T19:13:28.211Z,68.29
2022-10-24T19:16:32.496Z,68.70
2022-10-24T19:19:35.795Z,68.69
2022-10-24T19:22:38.553Z,68.68
2022-10-24T19:25:42.669Z,69.07
2022-10-24T19:28:45.401Z,68.65
2022-10-24T19:31:48.091Z,68.36
2022-10-24T19:34:51.329Z,68.00
2022-10-24T19:37:54.027Z,69.00
2022-10-24T19:40:58.422Z,68.35
2022-10-24T19:44:01.131Z,67.73
2022-10-24T19:47:03.685Z,68.76
2022-10-24T19:50:07.291Z,69.20
2022-10-24T19:56:24.113Z,68.34
2022-10-24T19:59:33.763Z,68.58
2022-10-24T20:02:36.396Z,68.93
2022-10-24T20:05:39.475Z,68.46
2022-10-24T20:08:42.658Z,69.38
2022-10-24T20:11:46.580Z,69.21
2022-10-24T20:14:49.273Z,69.78
2022-10-24T20:17:51.816Z,69.82
2022-10-24T20:20:54.983Z,69.61
2022-10-24T20:23:57.646Z,69.79
2022-10-24T20:27:01.882Z,70.20
2022-10-24T20:30:05.037Z,69.94
2022-10-24T20:33:07.647Z,70.16
2022-10-24T20:36:10.931Z,70.72
2022-10-24T20:39:21.271Z,70.81
2022-10-24T20:42:25.362Z,70.32
2022-10-24T20:45:28.203Z,70.89
2022-10-24T20:48:30.820Z,70.90
2022-10-24T20:51:33.736Z,71.29
2022-10-24T20:54:36.629Z,71.19
2022-10-24T20:57:41.038Z,71.46
2022-10-24T21:00:43.901Z,71.42
2022-10-24T21:03:46.444Z,70.79
2022-10-24T21:06:49.294Z,71.53
2022-10-24T21:09:52.476Z,71.30
2022-10-24T21:12:56.437Z,72.13
2022-10-24T21:15:59.151Z,72.04
2022-10-24T21:19:01.975Z,71.90
2022-10-24T21:22:04.680Z,71.94
2022-10-24T21:25:08.158Z,72.36
2022-10-24T21:28:12.069Z,71.08
2022-10-24T21:31:16.674Z,72.28
2022-10-24T21:34:19.760Z,72.13
2022-10-24T21:37:22.366Z,72.14
2022-10-24T21:40:25.251Z,71.98
2022-10-24T21:43:29.883Z,72.96
2022-10-24T21:46:33.392Z,73.07
2022-10-24T21:49:35.943Z,73.24
2022-10-24T21:52:38.712Z,72.97
2022-10-24T21:55:41.368Z,72.34
2022-10-24T21:58:48.784Z,72.88
2022-10-24T22:01:53.114Z,73.29
2022-10-24T22:04:55.900Z,73.22
2022-10-24T22:07:58.642Z,72.98
2022-10-24T22:11:03.686Z,73.06
2022-10-24T22:14:07.713Z,72.34
2022-10-24T22:17:10.446Z,72.75
2022-10-24T22:20:13.054Z,71.80
2022-10-24T22:23:16.212Z,72.73
2022-10-24T22:26:19.393Z,73.06
2022-10-24T22:29:25.117Z,72.88
2022-10-24T22:32:28.292Z,72.66
2022-10-24T22:35:31.606Z,72.96
2022-10-24T22:38:34.942Z,72.98
2022-10-24T22:41:38.130Z,72.96
2022-10-24T22:44:42.656Z,73.11
2022-10-24T22:48:00.966Z,73.38
2022-10-24T22:51:03.814Z,73.41
2022-10-24T22:54:11.177Z,73.34
2022-10-24T22:57:14.502Z,73.35
2022-10-24T23:00:20.118Z,73.49
2022-10-24T23:03:33.599Z,74.23
2022-10-24T23:06:43.405Z,74.12
2022-10-24T23:09:46.103Z,74.59
2022-10-24T23:12:50.416Z,74.66
2022-10-24T23:15:58.229Z,74.56
2022-10-24T23:19:01.718Z,74.74
2022-10-24T23:22:16.289Z,75.12
2022-10-24T23:25:21.523Z,74.96
2022-10-24T23:28:36.272Z,74.98
2022-10-24T23:31:40.990Z,75.39
2022-10-24T23:34:44.215Z,75.57
2022-10-24T23:37:48.541Z,75.86
2022-10-24T23:40:52.279Z,75.57
2022-10-24T23:43:55.502Z,75.69
2022-10-24T23:47:06.390Z,75.80
2022-10-24T23:50:16.349Z,76.13
2022-10-24T23:53:26.827Z,76.00
2022-10-24T23:56:30.628Z,76.34
2022-10-24T23:59:33.254Z,76.36
